sensor_id;sensor_type;location;lat;lon;timestamp;P1;durP1;ratioP1;P2;durP2;ratioP2
28070;SDS011;15383;48.408;9.968;2023-12-29T00:02:20;13.65;;;6.45;;
28070;SDS011;15383;48.408;9.968;2023-12-29T00:04:45;10.40;;;5.97;;
28070;SDS011;15383;48.408;9.968;2023-12-29T00:07:11;10.45;;;6.18;;
28070;SDS011;15383;48.408;9.968;2023-12-29T00:09:36;8.80;;;5.63;;
28070;SDS011;15383;48.408;9.968;2023-12-29T00:12:06;11.60;;;5.60;;
28070;SDS011;15383;48.408;9.968;2023-12-29T00:14:32;8.77;;;5.43;;
28070;SDS011;15383;48.408;9.968;2023-12-29T00:16:58;12.20;;;6.10;;
28070;SDS011;15383;48.408;9.968;2023-12-29T00:19:24;13.55;;;6.45;;
28070;SDS011;15383;48.408;9.968;2023-12-29T00:21:50;11.60;;;7.03;;
28070;SDS011;15383;48.408;9.968;2023-12-29T00:24:16;14.55;;;6.47;;
28070;SDS011;15383;48.408;9.968;2023-12-29T00:26:42;13.82;;;6.45;;
28070;SDS011;15383;48.408;9.968;2023-12-29T00:29:07;11.90;;;6.63;;
28070;SDS011;15383;48.408;9.968;2023-12-29T00:31:33;12.52;;;6.10;;
28070;SDS011;15383;48.408;9.968;2023-12-29T00:33:59;14.35;;;5.70;;
28070;SDS011;15383;48.408;9.968;2023-12-29T00:36:24;13.27;;;5.88;;
28070;SDS011;15383;48.408;9.968;2023-12-29T00:38:50;12.25;;;6.15;;
28070;SDS011;15383;48.408;9.968;2023-12-29T00:41:15;11.02;;;5.57;;
28070;SDS011;15383;48.408;9.968;2023-12-29T00:43:41;13.30;;;6.13;;
28070;SDS011;15383;48.408;9.968;2023-12-29T00:46:07;14.43;;;6.13;;
28070;SDS011;15383;48.408;9.968;2023-12-29T00:48:33;14.52;;;6.50;;
28070;SDS011;15383;48.408;9.968;2023-12-29T00:51:02;13.80;;;6.07;;
28070;SDS011;15383;48.408;9.968;2023-12-29T00:53:28;12.27;;;5.78;;
28070;SDS011;15383;48.408;9.968;2023-12-29T00:55:57;9.50;;;5.40;;
28070;SDS011;15383;48.408;9.968;2023-12-29T00:58:24;12.15;;;6.45;;
28070;SDS011;15383;48.408;9.968;2023-12-29T01:00:49;12.35;;;6.53;;
28070;SDS011;15383;48.408;9.968;2023-12-29T01:03:15;12.20;;;5.85;;
28070;SDS011;15383;48.408;9.968;2023-12-29T01:05:40;11.65;;;6.43;;
28070;SDS011;15383;48.408;9.968;2023-12-29T01:08:06;11.07;;;5.22;;
28070;SDS011;15383;48.408;9.968;2023-12-29T01:10:31;10.68;;;6.30;;
28070;SDS011;15383;48.408;9.968;2023-12-29T01:12:57;9.15;;;5.30;;
28070;SDS011;15383;48.408;9.968;2023-12-29T01:15:22;10.85;;;5.75;;
28070;SDS011;15383;48.408;9.968;2023-12-29T01:17:48;9.23;;;5.82;;
28070;SDS011;15383;48.408;9.968;2023-12-29T01:20:13;8.23;;;5.22;;
28070;SDS011;15383;48.408;9.968;2023-12-29T01:22:39;11.57;;;6.78;;
28070;SDS011;15383;48.408;9.968;2023-12-29T01:25:05;9.27;;;5.40;;
28070;SDS011;15383;48.408;9.968;2023-12-29T01:27:30;13.60;;;6.85;;
28070;SDS011;15383;48.408;9.968;2023-12-29T01:29:56;12.48;;;5.85;;
28070;SDS011;15383;48.408;9.968;2023-12-29T01:32:22;10.38;;;5.32;;
28070;SDS011;15383;48.408;9.968;2023-12-29T01:34:47;10.63;;;6.40;;
28070;SDS011;15383;48.408;9.968;2023-12-29T01:37:13;11.00;;;5.40;;
28070;SDS011;15383;48.408;9.968;2023-12-29T01:39:39;9.35;;;5.78;;
28070;SDS011;15383;48.408;9.968;2023-12-29T01:42:05;11.60;;;6.25;;
28070;SDS011;15383;48.408;9.968;2023-12-29T01:44:31;9.82;;;5.32;;
28070;SDS011;15383;48.408;9.968;2023-12-29T01:46:58;11.15;;;5.47;;
28070;SDS011;15383;48.408;9.968;2023-12-29T01:49:25;9.60;;;5.65;;
28070;SDS011;15383;48.408;9.968;2023-12-29T01:51:54;9.07;;;5.53;;
28070;SDS011;15383;48.408;9.968;2023-12-29T01:54:23;15.57;;;6.28;;
28070;SDS011;15383;48.408;9.968;2023-12-29T01:56:52;12.35;;;6.25;;
28070;SDS011;15383;48.408;9.968;2023-12-29T01:59:21;9.40;;;5.18;;
28070;SDS011;15383;48.408;9.968;2023-12-29T02:01:48;12.40;;;6.68;;
28070;SDS011;15383;48.408;9.968;2023-12-29T02:04:13;9.35;;;5.60;;
28070;SDS011;15383;48.408;9.968;2023-12-29T02:06:40;10.82;;;5.75;;
28070;SDS011;15383;48.408;9.968;2023-12-29T02:09:06;18.13;;;5.22;;
28070;SDS011;15383;48.408;9.968;2023-12-29T02:11:32;11.60;;;6.22;;
28070;SDS011;15383;48.408;9.968;2023-12-29T02:14:00;11.70;;;5.80;;
28070;SDS011;15383;48.408;9.968;2023-12-29T02:19:08;11.43;;;6.30;;
28070;SDS011;15383;48.408;9.968;2023-12-29T02:22:00;10.48;;;5.82;;
28070;SDS011;15383;48.408;9.968;2023-12-29T02:24:25;9.95;;;5.85;;
28070;SDS011;15383;48.408;9.968;2023-12-29T02:26:53;10.95;;;6.28;;
28070;SDS011;15383;48.408;9.968;2023-12-29T02:29:27;11.02;;;5.88;;
28070;SDS011;15383;48.408;9.968;2023-12-29T02:31:56;11.55;;;6.32;;
28070;SDS011;15383;48.408;9.968;2023-12-29T02:34:24;14.05;;;6.32;;
28070;SDS011;15383;48.408;9.968;2023-12-29T02:36:50;13.88;;;6.28;;
28070;SDS011;15383;48.408;9.968;2023-12-29T02:39:16;10.52;;;5.70;;
28070;SDS011;15383;48.408;9.968;2023-12-29T02:41:42;10.20;;;6.18;;
28070;SDS011;15383;48.408;9.968;2023-12-29T02:44:09;10.13;;;5.78;;
28070;SDS011;15383;48.408;9.968;2023-12-29T02:46:34;11.75;;;6.28;;
28070;SDS011;15383;48.408;9.968;2023-12-29T02:49:00;14.38;;;6.75;;
28070;SDS011;15383;48.408;9.968;2023-12-29T02:51:25;10.30;;;6.13;;
28070;SDS011;15383;48.408;9.968;2023-12-29T02:53:51;9.88;;;6.10;;
28070;SDS011;15383;48.408;9.968;2023-12-29T02:56:16;13.02;;;6.88;;
28070;SDS011;15383;48.408;9.968;2023-12-29T02:58:42;10.35;;;5.97;;
28070;SDS011;15383;48.408;9.968;2023-12-29T03:01:07;11.77;;;6.28;;
28070;SDS011;15383;48.408;9.968;2023-12-29T03:03:33;10.50;;;6.57;;
28070;SDS011;15383;48.408;9.968;2023-12-29T03:05:59;14.68;;;6.47;;
28070;SDS011;15383;48.408;9.968;2023-12-29T03:08:24;15.15;;;6.38;;
28070;SDS011;15383;48.408;9.968;2023-12-29T03:10:50;13.80;;;6.82;;
28070;SDS011;15383;48.408;9.968;2023-12-29T03:13:16;12.00;;;6.60;;
28070;SDS011;15383;48.408;9.968;2023-12-29T03:15:41;10.50;;;6.47;;
28070;SDS011;15383;48.408;9.968;2023-12-29T03:18:07;12.13;;;7.25;;
28070;SDS011;15383;48.408;9.968;2023-12-29T03:20:33;14.23;;;6.97;;
28070;SDS011;15383;48.408;9.968;2023-12-29T03:22:58;15.25;;;7.20;;
28070;SDS011;15383;48.408;9.968;2023-12-29T03:25:24;11.55;;;6.57;;
28070;SDS011;15383;48.408;9.968;2023-12-29T03:27:49;11.63;;;7.07;;
28070;SDS011;15383;48.408;9.968;2023-12-29T03:30:15;12.27;;;6.07;;
28070;SDS011;15383;48.408;9.968;2023-12-29T03:32:40;12.15;;;6.85;;
28070;SDS011;15383;48.408;9.968;2023-12-29T03:35:06;13.90;;;7.22;;
28070;SDS011;15383;48.408;9.968;2023-12-29T03:37:31;10.70;;;6.80;;
28070;SDS011;15383;48.408;9.968;2023-12-29T03:39:57;15.27;;;7.00;;
28070;SDS011;15383;48.408;9.968;2023-12-29T03:42:23;12.05;;;6.47;;
28070;SDS011;15383;48.408;9.968;2023-12-29T03:44:48;9.30;;;6.18;;
28070;SDS011;15383;48.408;9.968;2023-12-29T03:47:14;10.55;;;6.57;;
28070;SDS011;15383;48.408;9.968;2023-12-29T03:49:39;11.45;;;6.68;;
28070;SDS011;15383;48.408;9.968;2023-12-29T03:52:05;12.52;;;7.45;;
28070;SDS011;15383;48.408;9.968;2023-12-29T03:54:30;13.80;;;6.80;;
28070;SDS011;15383;48.408;9.968;2023-12-29T03:56:56;14.63;;;7.18;;
28070;SDS011;15383;48.408;9.968;2023-12-29T03:59:21;16.67;;;7.43;;
28070;SDS011;15383;48.408;9.968;2023-12-29T04:01:47;14.25;;;7.20;;
28070;SDS011;15383;48.408;9.968;2023-12-29T04:04:13;14.63;;;7.38;;
28070;SDS011;15383;48.408;9.968;2023-12-29T04:06:38;13.10;;;7.13;;
28070;SDS011;15383;48.408;9.968;2023-12-29T04:09:04;14.57;;;7.53;;
28070;SDS011;15383;48.408;9.968;2023-12-29T04:11:30;14.88;;;7.47;;
28070;SDS011;15383;48.408;9.968;2023-12-29T04:13:55;16.35;;;8.10;;
28070;SDS011;15383;48.408;9.968;2023-12-29T04:16:21;12.80;;;7.43;;
28070;SDS011;15383;48.408;9.968;2023-12-29T04:18:46;14.18;;;7.40;;
28070;SDS011;15383;48.408;9.968;2023-12-29T04:21:15;14.52;;;7.68;;
28070;SDS011;15383;48.408;9.968;2023-12-29T04:23:40;12.90;;;7.05;;
28070;SDS011;15383;48.408;9.968;2023-12-29T04:26:09;12.65;;;6.22;;
28070;SDS011;15383;48.408;9.968;2023-12-29T04:28:35;15.68;;;7.25;;
28070;SDS011;15383;48.408;9.968;2023-12-29T04:31:00;13.73;;;6.95;;
28070;SDS011;15383;48.408;9.968;2023-12-29T04:33:26;17.45;;;8.55;;
28070;SDS011;15383;48.408;9.968;2023-12-29T04:35:51;11.70;;;6.70;;
28070;SDS011;15383;48.408;9.968;2023-12-29T04:38:17;15.48;;;8.02;;
28070;SDS011;15383;48.408;9.968;2023-12-29T04:40:45;20.00;;;7.88;;
28070;SDS011;15383;48.408;9.968;2023-12-29T04:43:12;13.23;;;6.38;;
28070;SDS011;15383;48.408;9.968;2023-12-29T04:45:37;18.10;;;7.55;;
28070;SDS011;15383;48.408;9.968;2023-12-29T04:48:03;14.52;;;7.38;;
28070;SDS011;15383;48.408;9.968;2023-12-29T04:50:29;11.70;;;6.85;;
28070;SDS011;15383;48.408;9.968;2023-12-29T04:52:55;17.02;;;7.03;;
28070;SDS011;15383;48.408;9.968;2023-12-29T04:55:20;12.90;;;7.00;;
28070;SDS011;15383;48.408;9.968;2023-12-29T04:57:46;15.98;;;7.57;;
28070;SDS011;15383;48.408;9.968;2023-12-29T05:00:11;16.17;;;7.38;;
28070;SDS011;15383;48.408;9.968;2023-12-29T05:02:37;12.00;;;7.20;;
28070;SDS011;15383;48.408;9.968;2023-12-29T05:05:03;16.42;;;7.07;;
28070;SDS011;15383;48.408;9.968;2023-12-29T05:07:29;15.50;;;6.88;;
28070;SDS011;15383;48.408;9.968;2023-12-29T05:09:55;12.55;;;6.72;;
28070;SDS011;15383;48.408;9.968;2023-12-29T05:12:20;15.27;;;7.13;;
28070;SDS011;15383;48.408;9.968;2023-12-29T05:14:46;12.68;;;7.18;;
28070;SDS011;15383;48.408;9.968;2023-12-29T05:17:11;11.85;;;6.35;;
28070;SDS011;15383;48.408;9.968;2023-12-29T05:19:37;17.73;;;7.07;;
28070;SDS011;15383;48.408;9.968;2023-12-29T05:22:03;13.35;;;6.93;;
28070;SDS011;15383;48.408;9.968;2023-12-29T05:24:28;16.90;;;7.38;;
28070;SDS011;15383;48.408;9.968;2023-12-29T05:26:54;14.25;;;7.38;;
28070;SDS011;15383;48.408;9.968;2023-12-29T05:29:19;14.30;;;6.90;;
28070;SDS011;15383;48.408;9.968;2023-12-29T05:31:45;11.55;;;7.07;;
28070;SDS011;15383;48.408;9.968;2023-12-29T05:34:10;15.07;;;7.30;;
28070;SDS011;15383;48.408;9.968;2023-12-29T05:36:36;13.68;;;7.10;;
28070;SDS011;15383;48.408;9.968;2023-12-29T05:39:02;12.10;;;6.53;;
28070;SDS011;15383;48.408;9.968;2023-12-29T05:41:28;13.00;;;6.72;;
28070;SDS011;15383;48.408;9.968;2023-12-29T05:43:54;11.40;;;7.20;;
28070;SDS011;15383;48.408;9.968;2023-12-29T05:46:19;9.77;;;6.53;;
28070;SDS011;15383;48.408;9.968;2023-12-29T05:48:46;14.27;;;6.78;;
28070;SDS011;15383;48.408;9.968;2023-12-29T05:51:14;15.05;;;7.15;;
28070;SDS011;15383;48.408;9.968;2023-12-29T05:53:40;14.48;;;7.03;;
28070;SDS011;15383;48.408;9.968;2023-12-29T05:56:06;10.48;;;6.10;;
28070;SDS011;15383;48.408;9.968;2023-12-29T05:58:31;10.35;;;6.78;;
28070;SDS011;15383;48.408;9.968;2023-12-29T06:00:57;16.75;;;7.28;;
28070;SDS011;15383;48.408;9.968;2023-12-29T06:03:26;13.43;;;6.93;;
28070;SDS011;15383;48.408;9.968;2023-12-29T06:05:52;13.88;;;6.65;;
28070;SDS011;15383;48.408;9.968;2023-12-29T06:08:18;12.63;;;6.78;;
28070;SDS011;15383;48.408;9.968;2023-12-29T06:10:44;16.13;;;6.45;;
28070;SDS011;15383;48.408;9.968;2023-12-29T06:13:09;11.75;;;6.68;;
28070;SDS011;15383;48.408;9.968;2023-12-29T06:15:35;9.93;;;6.40;;
28070;SDS011;15383;48.408;9.968;2023-12-29T06:18:01;20.77;;;7.28;;
28070;SDS011;15383;48.408;9.968;2023-12-29T06:20:27;4.82;;;3.08;;
28070;SDS011;15383;48.408;9.968;2023-12-29T06:22:52;6.18;;;3.45;;
28070;SDS011;15383;48.408;9.968;2023-12-29T06:25:18;6.47;;;3.97;;
28070;SDS011;15383;48.408;9.968;2023-12-29T06:27:44;7.50;;;4.43;;
28070;SDS011;15383;48.408;9.968;2023-12-29T06:30:10;8.70;;;4.63;;
28070;SDS011;15383;48.408;9.968;2023-12-29T06:32:36;10.43;;;5.03;;
28070;SDS011;15383;48.408;9.968;2023-12-29T06:35:02;13.18;;;5.40;;
28070;SDS011;15383;48.408;9.968;2023-12-29T06:37:28;9.52;;;5.28;;
28070;SDS011;15383;48.408;9.968;2023-12-29T06:39:53;12.10;;;5.85;;
28070;SDS011;15383;48.408;9.968;2023-12-29T06:42:19;8.88;;;5.32;;
28070;SDS011;15383;48.408;9.968;2023-12-29T06:44:45;11.07;;;5.50;;
28070;SDS011;15383;48.408;9.968;2023-12-29T06:47:11;11.20;;;5.53;;
28070;SDS011;15383;48.408;9.968;2023-12-29T06:49:37;9.02;;;5.32;;
28070;SDS011;15383;48.408;9.968;2023-12-29T06:52:03;9.73;;;5.57;;
28070;SDS011;15383;48.408;9.968;2023-12-29T06:54:29;13.02;;;6.07;;
28070;SDS011;15383;48.408;9.968;2023-12-29T06:56:55;11.43;;;5.72;;
28070;SDS011;15383;48.408;9.968;2023-12-29T06:59:21;10.30;;;5.60;;
28070;SDS011;15383;48.408;9.968;2023-12-29T07:01:47;10.75;;;6.10;;
28070;SDS011;15383;48.408;9.968;2023-12-29T07:04:13;9.82;;;5.43;;
28070;SDS011;15383;48.408;9.968;2023-12-29T07:06:40;8.00;;;5.35;;
28070;SDS011;15383;48.408;9.968;2023-12-29T07:09:06;10.02;;;5.53;;
28070;SDS011;15383;48.408;9.968;2023-12-29T07:11:33;11.05;;;5.50;;
28070;SDS011;15383;48.408;9.968;2023-12-29T07:13:58;11.02;;;5.30;;
28070;SDS011;15383;48.408;9.968;2023-12-29T07:16:24;12.48;;;5.07;;
28070;SDS011;15383;48.408;9.968;2023-12-29T07:18:49;10.15;;;5.50;;
28070;SDS011;15383;48.408;9.968;2023-12-29T07:21:15;9.30;;;5.00;;
28070;SDS011;15383;48.408;9.968;2023-12-29T07:23:42;9.48;;;6.00;;
28070;SDS011;15383;48.408;9.968;2023-12-29T07:26:07;10.52;;;5.22;;
28070;SDS011;15383;48.408;9.968;2023-12-29T07:28:33;13.20;;;5.32;;
28070;SDS011;15383;48.408;9.968;2023-12-29T07:30:59;11.60;;;5.35;;
28070;SDS011;15383;48.408;9.968;2023-12-29T07:33:25;9.15;;;5.53;;
28070;SDS011;15383;48.408;9.968;2023-12-29T07:35:50;8.30;;;5.25;;
28070;SDS011;15383;48.408;9.968;2023-12-29T07:38:16;9.40;;;5.38;;
28070;SDS011;15383;48.408;9.968;2023-12-29T07:40:42;8.77;;;5.05;;
28070;SDS011;15383;48.408;9.968;2023-12-29T07:43:07;10.18;;;5.25;;
28070;SDS011;15383;48.408;9.968;2023-12-29T07:45:33;10.43;;;5.78;;
28070;SDS011;15383;48.408;9.968;2023-12-29T07:47:59;11.13;;;5.00;;
28070;SDS011;15383;48.408;9.968;2023-12-29T07:50:25;9.38;;;4.88;;
28070;SDS011;15383;48.408;9.968;2023-12-29T07:52:50;7.32;;;4.95;;
28070;SDS011;15383;48.408;9.968;2023-12-29T07:55:16;6.53;;;4.53;;
28070;SDS011;15383;48.408;9.968;2023-12-29T07:57:42;9.18;;;4.90;;
28070;SDS011;15383;48.408;9.968;2023-12-29T08:00:08;7.40;;;4.90;;
28070;SDS011;15383;48.408;9.968;2023-12-29T08:02:34;11.07;;;5.43;;
28070;SDS011;15383;48.408;9.968;2023-12-29T08:05:00;10.95;;;5.35;;
28070;SDS011;15383;48.408;9.968;2023-12-29T08:07:26;10.45;;;5.55;;
28070;SDS011;15383;48.408;9.968;2023-12-29T08:09:51;8.77;;;4.90;;
28070;SDS011;15383;48.408;9.968;2023-12-29T08:12:17;8.27;;;5.05;;
28070;SDS011;15383;48.408;9.968;2023-12-29T08:14:42;9.85;;;5.55;;
28070;SDS011;15383;48.408;9.968;2023-12-29T08:17:08;9.85;;;5.47;;
28070;SDS011;15383;48.408;9.968;2023-12-29T08:19:34;10.30;;;5.38;;
28070;SDS011;15383;48.408;9.968;2023-12-29T08:21:59;8.85;;;5.07;;
28070;SDS011;15383;48.408;9.968;2023-12-29T08:24:25;9.52;;;4.68;;
28070;SDS011;15383;48.408;9.968;2023-12-29T08:26:50;7.93;;;5.07;;
28070;SDS011;15383;48.408;9.968;2023-12-29T08:29:16;8.57;;;5.55;;
28070;SDS011;15383;48.408;9.968;2023-12-29T08:31:42;11.60;;;5.65;;
28070;SDS011;15383;48.408;9.968;2023-12-29T08:34:08;7.82;;;4.65;;
28070;SDS011;15383;48.408;9.968;2023-12-29T08:36:34;8.80;;;4.95;;
28070;SDS011;15383;48.408;9.968;2023-12-29T08:39:00;7.63;;;4.80;;
28070;SDS011;15383;48.408;9.968;2023-12-29T08:41:26;8.48;;;4.88;;
28070;SDS011;15383;48.408;9.968;2023-12-29T08:43:52;12.73;;;5.40;;
28070;SDS011;15383;48.408;9.968;2023-12-29T08:46:19;10.25;;;4.90;;
28070;SDS011;15383;48.408;9.968;2023-12-29T08:48:45;9.20;;;5.03;;
28070;SDS011;15383;48.408;9.968;2023-12-29T08:51:11;11.82;;;5.05;;
28070;SDS011;15383;48.408;9.968;2023-12-29T08:53:37;10.77;;;4.75;;
28070;SDS011;15383;48.408;9.968;2023-12-29T08:56:02;8.93;;;4.95;;
28070;SDS011;15383;48.408;9.968;2023-12-29T08:58:28;6.32;;;4.20;;
28070;SDS011;15383;48.408;9.968;2023-12-29T09:00:54;9.80;;;4.85;;
28070;SDS011;15383;48.408;9.968;2023-12-29T09:03:20;7.13;;;4.53;;
28070;SDS011;15383;48.408;9.968;2023-12-29T09:05:46;7.20;;;4.32;;
28070;SDS011;15383;48.408;9.968;2023-12-29T09:08:11;7.10;;;4.55;;
28070;SDS011;15383;48.408;9.968;2023-12-29T09:10:37;8.95;;;4.05;;
28070;SDS011;15383;48.408;9.968;2023-12-29T09:13:03;9.50;;;5.35;;
28070;SDS011;15383;48.408;9.968;2023-12-29T09:15:29;5.93;;;4.00;;
28070;SDS011;15383;48.408;9.968;2023-12-29T09:17:55;7.10;;;4.28;;
28070;SDS011;15383;48.408;9.968;2023-12-29T09:20:20;6.00;;;3.95;;
28070;SDS011;15383;48.408;9.968;2023-12-29T09:22:46;7.35;;;4.30;;
28070;SDS011;15383;48.408;9.968;2023-12-29T09:25:11;6.05;;;3.92;;
28070;SDS011;15383;48.408;9.968;2023-12-29T09:27:37;10.70;;;5.00;;
28070;SDS011;15383;48.408;9.968;2023-12-29T09:30:03;8.98;;;4.07;;
28070;SDS011;15383;48.408;9.968;2023-12-29T09:32:30;6.72;;;4.28;;
28070;SDS011;15383;48.408;9.968;2023-12-29T09:34:55;5.85;;;3.92;;
28070;SDS011;15383;48.408;9.968;2023-12-29T09:37:21;6.47;;;3.85;;
28070;SDS011;15383;48.408;9.968;2023-12-29T09:39:47;9.68;;;4.63;;
28070;SDS011;15383;48.408;9.968;2023-12-29T09:42:13;7.50;;;4.47;;
28070;SDS011;15383;48.408;9.968;2023-12-29T09:44:50;7.85;;;4.50;;
28070;SDS011;15383;48.408;9.968;2023-12-29T09:47:19;7.22;;;3.80;;
28070;SDS011;15383;48.408;9.968;2023-12-29T09:49:53;9.05;;;4.35;;
28070;SDS011;15383;48.408;9.968;2023-12-29T09:52:20;8.98;;;4.05;;
28070;SDS011;15383;48.408;9.968;2023-12-29T09:54:50;10.23;;;3.92;;
28070;SDS011;15383;48.408;9.968;2023-12-29T09:57:17;8.00;;;4.05;;
28070;SDS011;15383;48.408;9.968;2023-12-29T09:59:43;7.72;;;4.68;;
28070;SDS011;15383;48.408;9.968;2023-12-29T10:02:16;8.35;;;4.28;;
28070;SDS011;15383;48.408;9.968;2023-12-29T10:04:42;6.28;;;4.28;;
28070;SDS011;15383;48.408;9.968;2023-12-29T10:07:07;12.10;;;4.50;;
28070;SDS011;15383;48.408;9.968;2023-12-29T10:09:36;5.95;;;3.53;;
28070;SDS011;15383;48.408;9.968;2023-12-29T10:12:03;7.75;;;4.60;;
28070;SDS011;15383;48.408;9.968;2023-12-29T10:14:32;8.40;;;3.97;;
28070;SDS011;15383;48.408;9.968;2023-12-29T10:17:25;7.30;;;4.43;;
28070;SDS011;15383;48.408;9.968;2023-12-29T10:20:08;7.15;;;4.38;;
28070;SDS011;15383;48.408;9.968;2023-12-29T10:22:48;7.78;;;4.63;;
28070;SDS011;15383;48.408;9.968;2023-12-29T10:25:20;8.75;;;4.60;;
28070;SDS011;15383;48.408;9.968;2023-12-29T10:27:48;5.35;;;3.83;;
28070;SDS011;15383;48.408;9.968;2023-12-29T10:30:13;8.10;;;4.63;;
28070;SDS011;15383;48.408;9.968;2023-12-29T10:32:40;7.65;;;4.47;;
28070;SDS011;15383;48.408;9.968;2023-12-29T10:35:12;6.03;;;4.47;;
28070;SDS011;15383;48.408;9.968;2023-12-29T10:37:38;9.55;;;4.63;;
28070;SDS011;15383;48.408;9.968;2023-12-29T10:40:04;7.28;;;4.38;;
28070;SDS011;15383;48.408;9.968;2023-12-29T10:42:30;11.38;;;4.80;;
28070;SDS011;15383;48.408;9.968;2023-12-29T10:45:05;11.57;;;5.05;;
28070;SDS011;15383;48.408;9.968;2023-12-29T10:47:32;6.22;;;4.13;;
28070;SDS011;15383;48.408;9.968;2023-12-29T10:50:00;11.10;;;4.82;;
28070;SDS011;15383;48.408;9.968;2023-12-29T10:52:28;8.70;;;4.57;;
28070;SDS011;15383;48.408;9.968;2023-12-29T10:55:03;9.10;;;4.97;;
28070;SDS011;15383;48.408;9.968;2023-12-29T10:57:30;7.85;;;4.10;;
28070;SDS011;15383;48.408;9.968;2023-12-29T10:59:57;6.68;;;4.47;;
28070;SDS011;15383;48.408;9.968;2023-12-29T11:02:23;7.90;;;4.50;;
28070;SDS011;15383;48.408;9.968;2023-12-29T11:04:48;7.75;;;4.03;;
28070;SDS011;15383;48.408;9.968;2023-12-29T11:07:15;8.15;;;4.22;;
28070;SDS011;15383;48.408;9.968;2023-12-29T11:09:55;6.15;;;3.83;;
28070;SDS011;15383;48.408;9.968;2023-12-29T11:12:30;8.18;;;4.57;;
28070;SDS011;15383;48.408;9.968;2023-12-29T11:15:03;16.17;;;4.28;;
28070;SDS011;15383;48.408;9.968;2023-12-29T11:17:31;6.45;;;4.05;;
28070;SDS011;15383;48.408;9.968;2023-12-29T11:19:58;8.23;;;4.32;;
28070;SDS011;15383;48.408;9.968;2023-12-29T11:22:27;7.30;;;4.32;;
28070;SDS011;15383;48.408;9.968;2023-12-29T11:24:54;7.25;;;4.28;;
28070;SDS011;15383;48.408;9.968;2023-12-29T11:27:19;10.35;;;4.22;;
28070;SDS011;15383;48.408;9.968;2023-12-29T11:29:47;8.57;;;4.00;;
28070;SDS011;15383;48.408;9.968;2023-12-29T11:32:16;8.07;;;4.28;;
28070;SDS011;15383;48.408;9.968;2023-12-29T11:34:49;7.05;;;3.90;;
28070;SDS011;15383;48.408;9.968;2023-12-29T11:37:35;6.07;;;4.15;;
28070;SDS011;15383;48.408;9.968;2023-12-29T11:40:18;6.43;;;3.75;;
28070;SDS011;15383;48.408;9.968;2023-12-29T11:42:47;7.10;;;3.90;;
28070;SDS011;15383;48.408;9.968;2023-12-29T11:47:59;5.32;;;3.67;;
28070;SDS011;15383;48.408;9.968;2023-12-29T11:50:28;6.78;;;3.67;;
28070;SDS011;15383;48.408;9.968;2023-12-29T11:52:55;7.57;;;3.97;;
28070;SDS011;15383;48.408;9.968;2023-12-29T11:55:21;8.13;;;3.35;;
28070;SDS011;15383;48.408;9.968;2023-12-29T11:57:52;4.32;;;3.08;;
28070;SDS011;15383;48.408;9.968;2023-12-29T12:00:18;4.90;;;3.50;;
28070;SDS011;15383;48.408;9.968;2023-12-29T12:02:44;6.03;;;3.50;;
28070;SDS011;15383;48.408;9.968;2023-12-29T12:05:10;6.85;;;3.88;;
28070;SDS011;15383;48.408;9.968;2023-12-29T12:12:46;6.70;;;4.10;;
28070;SDS011;15383;48.408;9.968;2023-12-29T12:17:57;4.75;;;3.00;;
28070;SDS011;15383;48.408;9.968;2023-12-29T12:20:24;10.93;;;3.35;;
28070;SDS011;15383;48.408;9.968;2023-12-29T12:23:01;4.95;;;3.22;;
28070;SDS011;15383;48.408;9.968;2023-12-29T12:25:30;6.75;;;3.20;;
28070;SDS011;15383;48.408;9.968;2023-12-29T12:28:04;6.10;;;3.63;;
28070;SDS011;15383;48.408;9.968;2023-12-29T12:30:32;5.72;;;3.88;;
28070;SDS011;15383;48.408;9.968;2023-12-29T12:33:02;6.25;;;3.78;;
28070;SDS011;15383;48.408;9.968;2023-12-29T12:35:29;7.13;;;3.40;;
28070;SDS011;15383;48.408;9.968;2023-12-29T12:38:15;6.25;;;4.20;;
28070;SDS011;15383;48.408;9.968;2023-12-29T12:40:46;6.15;;;3.72;;
28070;SDS011;15383;48.408;9.968;2023-12-29T12:43:15;5.13;;;3.45;;
28070;SDS011;15383;48.408;9.968;2023-12-29T12:45:42;4.88;;;3.50;;
28070;SDS011;15383;48.408;9.968;2023-12-29T12:48:21;5.28;;;3.45;;
28070;SDS011;15383;48.408;9.968;2023-12-29T12:50:48;5.85;;;3.00;;
28070;SDS011;15383;48.408;9.968;2023-12-29T12:53:14;7.40;;;3.25;;
28070;SDS011;15383;48.408;9.968;2023-12-29T12:55:47;4.85;;;3.35;;
28070;SDS011;15383;48.408;9.968;2023-12-29T12:58:15;6.10;;;3.60;;
28070;SDS011;15383;48.408;9.968;2023-12-29T13:00:41;10.68;;;3.72;;
28070;SDS011;15383;48.408;9.968;2023-12-29T13:03:07;6.57;;;3.65;;
28070;SDS011;15383;48.408;9.968;2023-12-29T13:05:34;8.70;;;3.17;;
28070;SDS011;15383;48.408;9.968;2023-12-29T13:08:01;5.05;;;3.38;;
28070;SDS011;15383;48.408;9.968;2023-12-29T13:10:28;5.38;;;3.83;;
28070;SDS011;15383;48.408;9.968;2023-12-29T13:12:55;5.63;;;3.33;;
28070;SDS011;15383;48.408;9.968;2023-12-29T13:15:20;5.93;;;3.20;;
28070;SDS011;15383;48.408;9.968;2023-12-29T13:17:52;4.72;;;3.10;;
28070;SDS011;15383;48.408;9.968;2023-12-29T13:20:18;6.13;;;3.17;;
28070;SDS011;15383;48.408;9.968;2023-12-29T13:22:48;6.70;;;2.97;;
28070;SDS011;15383;48.408;9.968;2023-12-29T13:25:24;6.85;;;3.40;;
28070;SDS011;15383;48.408;9.968;2023-12-29T13:27:50;6.30;;;3.63;;
28070;SDS011;15383;48.408;9.968;2023-12-29T13:30:18;4.75;;;3.35;;
28070;SDS011;15383;48.408;9.968;2023-12-29T13:32:45;5.22;;;3.50;;
28070;SDS011;15383;48.408;9.968;2023-12-29T13:42:59;4.75;;;2.95;;
28070;SDS011;15383;48.408;9.968;2023-12-29T13:45:28;4.63;;;2.88;;
28070;SDS011;15383;48.408;9.968;2023-12-29T13:47:55;3.70;;;3.28;;
28070;SDS011;15383;48.408;9.968;2023-12-29T13:50:21;6.53;;;2.75;;
28070;SDS011;15383;48.408;9.968;2023-12-29T13:52:47;4.32;;;2.92;;
28070;SDS011;15383;48.408;9.968;2023-12-29T13:55:20;5.32;;;3.72;;
28070;SDS011;15383;48.408;9.968;2023-12-29T13:57:47;3.95;;;2.63;;
28070;SDS011;15383;48.408;9.968;2023-12-29T14:00:17;4.85;;;3.10;;
28070;SDS011;15383;48.408;9.968;2023-12-29T14:05:31;4.10;;;2.70;;
28070;SDS011;15383;48.408;9.968;2023-12-29T14:10:29;5.00;;;2.72;;
28070;SDS011;15383;48.408;9.968;2023-12-29T14:13:08;6.35;;;3.03;;
28070;SDS011;15383;48.408;9.968;2023-12-29T14:18:14;5.40;;;2.97;;
28070;SDS011;15383;48.408;9.968;2023-12-29T14:20:53;4.80;;;2.60;;
28070;SDS011;15383;48.408;9.968;2023-12-29T14:23:19;5.07;;;3.33;;
28070;SDS011;15383;48.408;9.968;2023-12-29T14:25:45;5.00;;;2.70;;
28070;SDS011;15383;48.408;9.968;2023-12-29T14:28:15;4.25;;;3.03;;
28070;SDS011;15383;48.408;9.968;2023-12-29T14:30:43;4.45;;;2.80;;
28070;SDS011;15383;48.408;9.968;2023-12-29T14:33:09;3.28;;;2.60;;
28070;SDS011;15383;48.408;9.968;2023-12-29T14:35:34;4.82;;;3.00;;
28070;SDS011;15383;48.408;9.968;2023-12-29T14:38:00;4.20;;;2.70;;
28070;SDS011;15383;48.408;9.968;2023-12-29T14:40:26;3.58;;;2.58;;
28070;SDS011;15383;48.408;9.968;2023-12-29T14:42:52;5.40;;;2.78;;
28070;SDS011;15383;48.408;9.968;2023-12-29T14:45:18;5.38;;;3.38;;
28070;SDS011;15383;48.408;9.968;2023-12-29T14:47:43;4.60;;;3.00;;
28070;SDS011;15383;48.408;9.968;2023-12-29T14:50:10;6.53;;;3.35;;
28070;SDS011;15383;48.408;9.968;2023-12-29T14:52:36;4.82;;;2.90;;
28070;SDS011;15383;48.408;9.968;2023-12-29T14:55:02;4.68;;;2.95;;
28070;SDS011;15383;48.408;9.968;2023-12-29T14:57:28;6.43;;;3.40;;
28070;SDS011;15383;48.408;9.968;2023-12-29T14:59:53;3.80;;;2.28;;
28070;SDS011;15383;48.408;9.968;2023-12-29T15:02:19;4.47;;;2.72;;
28070;SDS011;15383;48.408;9.968;2023-12-29T15:04:45;4.00;;;2.55;;
28070;SDS011;15383;48.408;9.968;2023-12-29T15:07:10;4.10;;;2.35;;
28070;SDS011;15383;48.408;9.968;2023-12-29T15:09:37;4.28;;;2.78;;